sensor_id;sensor_type;location;lat;lon;timestamp;P1;durP1;ratioP1;P2;durP2;ratioP2
12314;SDS011;23886;46.614;14.276;2022-11-20T00:01:10;6.83;;;6.23;;
12314;SDS011;23886;46.614;14.276;2022-11-20T00:03:39;7.37;;;6.67;;
12314;SDS011;23886;46.614;14.276;2022-11-20T00:06:08;6.93;;;6.23;;
12314;SDS011;23886;46.614;14.276;2022-11-20T00:08:37;7.73;;;7.03;;
12314;SDS011;23886;46.614;14.276;2022-11-20T00:11:04;8.10;;;7.10;;
12314;SDS011;23886;46.614;14.276;2022-11-20T00:13:32;8.03;;;7.23;;
12314;SDS011;23886;46.614;14.276;2022-11-20T00:16:00;7.97;;;7.17;;
12314;SDS011;23886;46.614;14.276;2022-11-20T00:18:28;7.83;;;7.00;;
12314;SDS011;23886;46.614;14.276;2022-11-20T00:21:00;7.47;;;6.87;;
12314;SDS011;23886;46.614;14.276;2022-11-20T00:23:28;6.93;;;6.30;;
12314;SDS011;23886;46.614;14.276;2022-11-20T00:25:55;8.23;;;7.43;;
12314;SDS011;23886;46.614;14.276;2022-11-20T00:28:23;7.43;;;6.73;;
12314;SDS011;23886;46.614;14.276;2022-11-20T00:30:49;7.13;;;6.43;;
12314;SDS011;23886;46.614;14.276;2022-11-20T00:33:16;7.50;;;6.60;;
12314;SDS011;23886;46.614;14.276;2022-11-20T00:35:43;7.00;;;6.33;;
12314;SDS011;23886;46.614;14.276;2022-11-20T00:38:10;6.63;;;6.00;;
12314;SDS011;23886;46.614;14.276;2022-11-20T00:40:39;6.93;;;6.03;;
12314;SDS011;23886;46.614;14.276;2022-11-20T00:43:06;7.37;;;6.67;;
12314;SDS011;23886;46.614;14.276;2022-11-20T00:45:33;6.60;;;6.00;;
12314;SDS011;23886;46.614;14.276;2022-11-20T00:48:00;6.97;;;6.37;;
12314;SDS011;23886;46.614;14.276;2022-11-20T00:50:26;6.60;;;6.00;;
12314;SDS011;23886;46.614;14.276;2022-11-20T00:52:54;7.30;;;6.60;;
12314;SDS011;23886;46.614;14.276;2022-11-20T00:55:21;7.00;;;6.30;;
12314;SDS011;23886;46.614;14.276;2022-11-20T00:57:50;6.53;;;5.93;;
12314;SDS011;23886;46.614;14.276;2022-11-20T01:00:17;6.90;;;6.20;;
12314;SDS011;23886;46.614;14.276;2022-11-20T01:02:44;6.83;;;6.20;;
12314;SDS011;23886;46.614;14.276;2022-11-20T01:05:11;6.43;;;5.83;;
12314;SDS011;23886;46.614;14.276;2022-11-20T01:07:38;6.50;;;5.90;;
12314;SDS011;23886;46.614;14.276;2022-11-20T01:10:06;7.57;;;5.83;;
12314;SDS011;23886;46.614;14.276;2022-11-20T01:12:33;6.20;;;5.63;;
12314;SDS011;23886;46.614;14.276;2022-11-20T01:15:02;6.00;;;5.40;;
12314;SDS011;23886;46.614;14.276;2022-11-20T01:17:30;6.73;;;5.70;;
12314;SDS011;23886;46.614;14.276;2022-11-20T01:19:57;6.37;;;5.77;;
12314;SDS011;23886;46.614;14.276;2022-11-20T01:22:24;6.53;;;5.93;;
12314;SDS011;23886;46.614;14.276;2022-11-20T01:24:51;6.80;;;6.20;;
12314;SDS011;23886;46.614;14.276;2022-11-20T01:27:18;6.53;;;5.63;;
12314;SDS011;23886;46.614;14.276;2022-11-20T01:29:45;6.67;;;6.07;;
12314;SDS011;23886;46.614;14.276;2022-11-20T01:32:14;6.20;;;5.60;;
12314;SDS011;23886;46.614;14.276;2022-11-20T01:34:42;6.30;;;5.73;;
12314;SDS011;23886;46.614;14.276;2022-11-20T01:37:09;6.33;;;5.73;;
12314;SDS011;23886;46.614;14.276;2022-11-20T01:39:36;5.90;;;5.30;;
12314;SDS011;23886;46.614;14.276;2022-11-20T01:42:03;5.97;;;5.47;;
12314;SDS011;23886;46.614;14.276;2022-11-20T01:44:56;5.90;;;5.40;;
12314;SDS011;23886;46.614;14.276;2022-11-20T01:47:27;6.13;;;5.53;;
12314;SDS011;23886;46.614;14.276;2022-11-20T01:49:59;6.53;;;5.87;;
12314;SDS011;23886;46.614;14.276;2022-11-20T01:52:31;6.70;;;5.87;;
12314;SDS011;23886;46.614;14.276;2022-11-20T01:55:02;5.60;;;5.10;;
12314;SDS011;23886;46.614;14.276;2022-11-20T01:57:32;5.77;;;5.10;;
12314;SDS011;23886;46.614;14.276;2022-11-20T02:00:03;6.37;;;5.77;;
12314;SDS011;23886;46.614;14.276;2022-11-20T02:02:34;6.83;;;6.13;;
12314;SDS011;23886;46.614;14.276;2022-11-20T02:05:04;6.13;;;5.53;;
12314;SDS011;23886;46.614;14.276;2022-11-20T02:07:48;6.00;;;5.47;;
12314;SDS011;23886;46.614;14.276;2022-11-20T02:10:15;6.87;;;6.23;;
12314;SDS011;23886;46.614;14.276;2022-11-20T02:12:42;5.97;;;5.43;;
12314;SDS011;23886;46.614;14.276;2022-11-20T02:15:27;5.60;;;5.10;;
12314;SDS011;23886;46.614;14.276;2022-11-20T02:17:55;5.37;;;4.87;;
12314;SDS011;23886;46.614;14.276;2022-11-20T02:20:22;4.90;;;4.50;;
12314;SDS011;23886;46.614;14.276;2022-11-20T02:22:50;5.47;;;4.60;;
12314;SDS011;23886;46.614;14.276;2022-11-20T02:25:24;5.47;;;4.97;;
12314;SDS011;23886;46.614;14.276;2022-11-20T02:27:53;4.50;;;4.10;;
12314;SDS011;23886;46.614;14.276;2022-11-20T02:30:20;4.17;;;3.87;;
12314;SDS011;23886;46.614;14.276;2022-11-20T02:32:47;4.73;;;4.33;;
12314;SDS011;23886;46.614;14.276;2022-11-20T02:38:07;4.37;;;3.97;;
12314;SDS011;23886;46.614;14.276;2022-11-20T02:40:36;4.37;;;3.77;;
12314;SDS011;23886;46.614;14.276;2022-11-20T02:43:03;4.47;;;4.07;;
12314;SDS011;23886;46.614;14.276;2022-11-20T02:45:30;4.17;;;3.77;;
12314;SDS011;23886;46.614;14.276;2022-11-20T02:47:57;4.10;;;3.70;;
12314;SDS011;23886;46.614;14.276;2022-11-20T02:50:24;4.40;;;4.00;;
12314;SDS011;23886;46.614;14.276;2022-11-20T02:52:51;4.20;;;3.80;;
12314;SDS011;23886;46.614;14.276;2022-11-20T02:55:18;5.27;;;3.90;;
12314;SDS011;23886;46.614;14.276;2022-11-20T02:57:46;4.33;;;3.93;;
12314;SDS011;23886;46.614;14.276;2022-11-20T03:00:13;4.00;;;3.70;;
12314;SDS011;23886;46.614;14.276;2022-11-20T03:02:41;3.67;;;3.37;;
12314;SDS011;23886;46.614;14.276;2022-11-20T03:05:08;3.93;;;3.50;;
12314;SDS011;23886;46.614;14.276;2022-11-20T03:07:35;3.97;;;3.57;;
12314;SDS011;23886;46.614;14.276;2022-11-20T03:10:02;3.67;;;3.37;;
12314;SDS011;23886;46.614;14.276;2022-11-20T03:12:30;3.33;;;3.03;;
12314;SDS011;23886;46.614;14.276;2022-11-20T03:14:58;3.43;;;3.07;;
12314;SDS011;23886;46.614;14.276;2022-11-20T03:17:25;3.40;;;3.10;;
12314;SDS011;23886;46.614;14.276;2022-11-20T03:19:52;3.70;;;3.40;;
12314;SDS011;23886;46.614;14.276;2022-11-20T03:22:19;3.40;;;3.10;;
12314;SDS011;23886;46.614;14.276;2022-11-20T03:24:46;3.47;;;3.17;;
12314;SDS011;23886;46.614;14.276;2022-11-20T03:27:13;3.30;;;3.00;;
12314;SDS011;23886;46.614;14.276;2022-11-20T03:29:40;3.27;;;3.00;;
12314;SDS011;23886;46.614;14.276;2022-11-20T03:32:09;3.33;;;3.03;;
12314;SDS011;23886;46.614;14.276;2022-11-20T03:34:36;3.53;;;2.77;;
12314;SDS011;23886;46.614;14.276;2022-11-20T03:37:03;2.67;;;2.47;;
12314;SDS011;23886;46.614;14.276;2022-11-20T03:39:30;3.90;;;3.37;;
12314;SDS011;23886;46.614;14.276;2022-11-20T03:41:56;2.63;;;2.43;;
12314;SDS011;23886;46.614;14.276;2022-11-20T03:44:23;2.50;;;2.30;;
12314;SDS011;23886;46.614;14.276;2022-11-20T03:46:50;3.57;;;2.50;;
12314;SDS011;23886;46.614;14.276;2022-11-20T03:49:19;2.40;;;2.20;;
12314;SDS011;23886;46.614;14.276;2022-11-20T03:51:46;2.20;;;2.00;;
12314;SDS011;23886;46.614;14.276;2022-11-20T03:54:13;2.70;;;2.50;;
12314;SDS011;23886;46.614;14.276;2022-11-20T03:56:40;2.20;;;2.00;;
12314;SDS011;23886;46.614;14.276;2022-11-20T03:59:09;2.60;;;2.40;;
12314;SDS011;23886;46.614;14.276;2022-11-20T04:01:36;2.60;;;2.40;;
12314;SDS011;23886;46.614;14.276;2022-11-20T04:04:03;2.47;;;2.27;;
12314;SDS011;23886;46.614;14.276;2022-11-20T04:06:35;2.43;;;2.23;;
12314;SDS011;23886;46.614;14.276;2022-11-20T04:09:03;2.40;;;2.20;;
12314;SDS011;23886;46.614;14.276;2022-11-20T04:11:31;2.37;;;2.17;;
12314;SDS011;23886;46.614;14.276;2022-11-20T04:14:00;2.30;;;2.10;;
12314;SDS011;23886;46.614;14.276;2022-11-20T04:16:28;3.03;;;2.23;;
12314;SDS011;23886;46.614;14.276;2022-11-20T04:18:57;2.87;;;1.97;;
12314;SDS011;23886;46.614;14.276;2022-11-20T04:21:25;2.60;;;2.33;;
12314;SDS011;23886;46.614;14.276;2022-11-20T04:23:54;2.40;;;2.20;;
12314;SDS011;23886;46.614;14.276;2022-11-20T04:26:22;2.27;;;2.07;;
12314;SDS011;23886;46.614;14.276;2022-11-20T04:28:50;2.20;;;2.00;;
12314;SDS011;23886;46.614;14.276;2022-11-20T04:31:18;2.20;;;2.00;;
12314;SDS011;23886;46.614;14.276;2022-11-20T04:33:46;2.50;;;2.07;;
12314;SDS011;23886;46.614;14.276;2022-11-20T04:36:14;2.57;;;2.37;;
12314;SDS011;23886;46.614;14.276;2022-11-20T04:38:43;2.53;;;2.33;;
12314;SDS011;23886;46.614;14.276;2022-11-20T04:41:12;3.90;;;2.33;;
12314;SDS011;23886;46.614;14.276;2022-11-20T04:43:45;2.83;;;2.53;;
12314;SDS011;23886;46.614;14.276;2022-11-20T04:46:13;2.53;;;2.07;;
12314;SDS011;23886;46.614;14.276;2022-11-20T04:48:40;2.70;;;2.20;;
12314;SDS011;23886;46.614;14.276;2022-11-20T04:51:07;2.80;;;2.60;;
12314;SDS011;23886;46.614;14.276;2022-11-20T04:53:34;2.67;;;2.47;;
12314;SDS011;23886;46.614;14.276;2022-11-20T04:56:02;2.70;;;2.50;;
12314;SDS011;23886;46.614;14.276;2022-11-20T04:58:32;2.53;;;2.30;;
12314;SDS011;23886;46.614;14.276;2022-11-20T05:01:02;2.83;;;2.60;;
12314;SDS011;23886;46.614;14.276;2022-11-20T05:03:30;2.60;;;2.30;;
12314;SDS011;23886;46.614;14.276;2022-11-20T05:05:59;2.40;;;2.20;;
12314;SDS011;23886;46.614;14.276;2022-11-20T05:08:27;2.60;;;2.40;;
12314;SDS011;23886;46.614;14.276;2022-11-20T05:10:58;3.47;;;2.27;;
12314;SDS011;23886;46.614;14.276;2022-11-20T05:13:26;2.50;;;2.30;;
12314;SDS011;23886;46.614;14.276;2022-11-20T05:15:55;2.43;;;2.23;;
12314;SDS011;23886;46.614;14.276;2022-11-20T05:18:22;2.90;;;2.60;;
12314;SDS011;23886;46.614;14.276;2022-11-20T05:20:54;2.50;;;2.30;;
12314;SDS011;23886;46.614;14.276;2022-11-20T05:23:21;3.53;;;2.70;;
12314;SDS011;23886;46.614;14.276;2022-11-20T05:25:51;2.90;;;2.60;;
12314;SDS011;23886;46.614;14.276;2022-11-20T05:28:19;4.37;;;3.00;;
12314;SDS011;23886;46.614;14.276;2022-11-20T05:30:46;3.23;;;2.93;;
12314;SDS011;23886;46.614;14.276;2022-11-20T05:33:14;3.07;;;2.80;;
12314;SDS011;23886;46.614;14.276;2022-11-20T05:35:41;3.07;;;2.80;;
12314;SDS011;23886;46.614;14.276;2022-11-20T05:38:09;2.97;;;2.77;;
12314;SDS011;23886;46.614;14.276;2022-11-20T05:40:36;3.63;;;3.00;;
12314;SDS011;23886;46.614;14.276;2022-11-20T05:43:02;3.30;;;3.00;;
12314;SDS011;23886;46.614;14.276;2022-11-20T05:45:29;3.20;;;2.90;;
12314;SDS011;23886;46.614;14.276;2022-11-20T05:47:57;3.97;;;3.67;;
12314;SDS011;23886;46.614;14.276;2022-11-20T05:50:26;3.70;;;3.40;;
12314;SDS011;23886;46.614;14.276;2022-11-20T05:52:54;4.30;;;3.90;;
12314;SDS011;23886;46.614;14.276;2022-11-20T05:55:21;3.90;;;3.50;;
12314;SDS011;23886;46.614;14.276;2022-11-20T05:57:48;3.97;;;3.57;;
12314;SDS011;23886;46.614;14.276;2022-11-20T06:00:15;6.33;;;3.47;;
12314;SDS011;23886;46.614;14.276;2022-11-20T06:02:42;3.73;;;3.43;;
12314;SDS011;23886;46.614;14.276;2022-11-20T06:05:09;4.13;;;3.73;;
12314;SDS011;23886;46.614;14.276;2022-11-20T06:07:37;4.60;;;3.90;;
12314;SDS011;23886;46.614;14.276;2022-11-20T06:10:05;4.47;;;3.27;;
12314;SDS011;23886;46.614;14.276;2022-11-20T06:12:33;3.87;;;3.10;;
12314;SDS011;23886;46.614;14.276;2022-11-20T06:15:00;3.67;;;3.07;;
12314;SDS011;23886;46.614;14.276;2022-11-20T06:17:27;3.77;;;2.70;;
12314;SDS011;23886;46.614;14.276;2022-11-20T06:19:54;3.30;;;2.70;;
12314;SDS011;23886;46.614;14.276;2022-11-20T06:22:21;2.77;;;2.40;;
12314;SDS011;23886;46.614;14.276;2022-11-20T06:24:49;2.27;;;2.10;;
12314;SDS011;23886;46.614;14.276;2022-11-20T06:27:16;2.53;;;2.33;;
12314;SDS011;23886;46.614;14.276;2022-11-20T06:29:43;2.57;;;2.37;;
12314;SDS011;23886;46.614;14.276;2022-11-20T06:32:10;2.70;;;2.50;;
12314;SDS011;23886;46.614;14.276;2022-11-20T06:34:37;2.50;;;2.30;;
12314;SDS011;23886;46.614;14.276;2022-11-20T06:37:04;2.50;;;2.20;;
12314;SDS011;23886;46.614;14.276;2022-11-20T06:39:31;2.40;;;2.20;;
12314;SDS011;23886;46.614;14.276;2022-11-20T06:41:59;3.10;;;2.43;;
12314;SDS011;23886;46.614;14.276;2022-11-20T06:44:26;3.40;;;3.10;;
12314;SDS011;23886;46.614;14.276;2022-11-20T06:46:53;3.50;;;3.20;;
12314;SDS011;23886;46.614;14.276;2022-11-20T06:49:20;2.93;;;2.73;;
12314;SDS011;23886;46.614;14.276;2022-11-20T06:51:47;3.37;;;3.07;;
12314;SDS011;23886;46.614;14.276;2022-11-20T06:54:14;2.93;;;2.73;;
12314;SDS011;23886;46.614;14.276;2022-11-20T06:56:41;3.70;;;3.20;;
12314;SDS011;23886;46.614;14.276;2022-11-20T06:59:09;3.50;;;3.20;;
12314;SDS011;23886;46.614;14.276;2022-11-20T07:01:36;4.73;;;3.60;;
12314;SDS011;23886;46.614;14.276;2022-11-20T07:04:03;3.90;;;3.50;;
12314;SDS011;23886;46.614;14.276;2022-11-20T07:06:30;4.00;;;3.20;;
12314;SDS011;23886;46.614;14.276;2022-11-20T07:08:57;3.77;;;3.13;;
12314;SDS011;23886;46.614;14.276;2022-11-20T07:11:24;3.60;;;3.30;;
12314;SDS011;23886;46.614;14.276;2022-11-20T07:13:51;4.27;;;3.57;;
12314;SDS011;23886;46.614;14.276;2022-11-20T07:16:20;4.83;;;4.43;;
12314;SDS011;23886;46.614;14.276;2022-11-20T07:18:47;3.63;;;3.33;;
12314;SDS011;23886;46.614;14.276;2022-11-20T07:21:14;4.00;;;3.70;;
12314;SDS011;23886;46.614;14.276;2022-11-20T07:23:41;3.90;;;3.50;;
12314;SDS011;23886;46.614;14.276;2022-11-20T07:26:08;4.40;;;4.00;;
12314;SDS011;23886;46.614;14.276;2022-11-20T07:28:36;3.83;;;3.53;;
12314;SDS011;23886;46.614;14.276;2022-11-20T07:31:04;4.67;;;3.80;;
12314;SDS011;23886;46.614;14.276;2022-11-20T07:33:33;4.50;;;4.07;;
12314;SDS011;23886;46.614;14.276;2022-11-20T07:36:00;4.40;;;4.00;;
12314;SDS011;23886;46.614;14.276;2022-11-20T07:38:27;5.63;;;5.07;;
12314;SDS011;23886;46.614;14.276;2022-11-20T07:40:55;7.50;;;5.77;;
12314;SDS011;23886;46.614;14.276;2022-11-20T07:43:22;5.00;;;4.50;;
12314;SDS011;23886;46.614;14.276;2022-11-20T07:45:50;5.80;;;5.20;;
12314;SDS011;23886;46.614;14.276;2022-11-20T07:48:17;6.07;;;5.20;;
12314;SDS011;23886;46.614;14.276;2022-11-20T07:50:45;5.50;;;4.97;;
12314;SDS011;23886;46.614;14.276;2022-11-20T07:53:12;4.83;;;4.43;;
12314;SDS011;23886;46.614;14.276;2022-11-20T07:55:45;5.00;;;4.47;;
12314;SDS011;23886;46.614;14.276;2022-11-20T07:58:12;4.70;;;4.27;;
12314;SDS011;23886;46.614;14.276;2022-11-20T08:00:40;6.00;;;4.63;;
12314;SDS011;23886;46.614;14.276;2022-11-20T08:03:07;5.20;;;4.50;;
12314;SDS011;23886;46.614;14.276;2022-11-20T08:05:34;5.43;;;4.87;;
12314;SDS011;23886;46.614;14.276;2022-11-20T08:08:03;5.37;;;4.57;;
12314;SDS011;23886;46.614;14.276;2022-11-20T08:10:31;5.07;;;4.57;;
12314;SDS011;23886;46.614;14.276;2022-11-20T08:12:59;5.07;;;4.30;;
12314;SDS011;23886;46.614;14.276;2022-11-20T08:15:47;4.80;;;4.30;;
12314;SDS011;23886;46.614;14.276;2022-11-20T08:18:15;4.67;;;4.27;;
12314;SDS011;23886;46.614;14.276;2022-11-20T08:20:42;4.63;;;4.23;;
12314;SDS011;23886;46.614;14.276;2022-11-20T08:23:11;5.60;;;4.90;;
12314;SDS011;23886;46.614;14.276;2022-11-20T08:25:38;4.93;;;4.43;;
12314;SDS011;23886;46.614;14.276;2022-11-20T08:28:06;6.43;;;4.80;;
12314;SDS011;23886;46.614;14.276;2022-11-20T08:30:35;4.03;;;3.63;;
12314;SDS011;23886;46.614;14.276;2022-11-20T08:33:03;4.30;;;3.90;;
12314;SDS011;23886;46.614;14.276;2022-11-20T08:35:33;4.83;;;4.30;;
12314;SDS011;23886;46.614;14.276;2022-11-20T08:38:01;4.67;;;4.27;;
12314;SDS011;23886;46.614;14.276;2022-11-20T08:40:29;4.53;;;4.10;;
12314;SDS011;23886;46.614;14.276;2022-11-20T08:42:57;5.03;;;4.53;;
12314;SDS011;23886;46.614;14.276;2022-11-20T08:45:24;5.50;;;5.00;;
12314;SDS011;23886;46.614;14.276;2022-11-20T08:47:51;5.10;;;4.60;;
12314;SDS011;23886;46.614;14.276;2022-11-20T08:50:18;6.20;;;5.60;;
12314;SDS011;23886;46.614;14.276;2022-11-20T08:52:45;5.17;;;4.70;;
12314;SDS011;23886;46.614;14.276;2022-11-20T08:55:12;4.97;;;4.57;;
12314;SDS011;23886;46.614;14.276;2022-11-20T08:57:40;5.73;;;5.17;;
12314;SDS011;23886;46.614;14.276;2022-11-20T09:00:07;5.40;;;4.90;;
12314;SDS011;23886;46.614;14.276;2022-11-20T09:02:36;5.70;;;5.20;;
12314;SDS011;23886;46.614;14.276;2022-11-20T09:05:03;5.50;;;5.00;;
12314;SDS011;23886;46.614;14.276;2022-11-20T09:07:31;5.87;;;5.27;;
12314;SDS011;23886;46.614;14.276;2022-11-20T09:09:58;5.43;;;4.77;;
12314;SDS011;23886;46.614;14.276;2022-11-20T09:12:25;5.43;;;4.93;;
12314;SDS011;23886;46.614;14.276;2022-11-20T09:14:53;5.53;;;5.00;;
12314;SDS011;23886;46.614;14.276;2022-11-20T09:17:20;5.50;;;5.00;;
12314;SDS011;23886;46.614;14.276;2022-11-20T09:19:47;5.43;;;4.93;;
12314;SDS011;23886;46.614;14.276;2022-11-20T09:22:14;5.57;;;5.07;;
12314;SDS011;23886;46.614;14.276;2022-11-20T09:24:41;6.50;;;5.40;;
12314;SDS011;23886;46.614;14.276;2022-11-20T09:27:08;5.70;;;5.20;;
12314;SDS011;23886;46.614;14.276;2022-11-20T09:29:35;5.60;;;5.10;;
12314;SDS011;23886;46.614;14.276;2022-11-20T09:32:04;5.33;;;4.80;;
12314;SDS011;23886;46.614;14.276;2022-11-20T09:34:31;6.50;;;5.90;;
12314;SDS011;23886;46.614;14.276;2022-11-20T09:36:58;7.43;;;6.60;;
12314;SDS011;23886;46.614;14.276;2022-11-20T09:39:25;7.83;;;7.00;;
12314;SDS011;23886;46.614;14.276;2022-11-20T09:41:58;6.23;;;5.67;;
12314;SDS011;23886;46.614;14.276;2022-11-20T09:47:31;5.83;;;5.10;;
12314;SDS011;23886;46.614;14.276;2022-11-20T09:50:15;6.50;;;5.37;;
12314;SDS011;23886;46.614;14.276;2022-11-20T09:52:55;6.03;;;5.43;;
12314;SDS011;23886;46.614;14.276;2022-11-20T09:55:35;6.83;;;6.23;;
12314;SDS011;23886;46.614;14.276;2022-11-20T09:58:04;6.80;;;6.03;;
12314;SDS011;23886;46.614;14.276;2022-11-20T10:00:34;6.63;;;5.90;;
12314;SDS011;23886;46.614;14.276;2022-11-20T10:03:05;6.30;;;5.47;;
12314;SDS011;23886;46.614;14.276;2022-11-20T10:05:41;5.90;;;5.40;;
12314;SDS011;23886;46.614;14.276;2022-11-20T10:08:14;6.70;;;6.10;;
12314;SDS011;23886;46.614;14.276;2022-11-20T10:10:46;6.83;;;6.10;;
12314;SDS011;23886;46.614;14.276;2022-11-20T10:13:20;6.73;;;6.13;;
12314;SDS011;23886;46.614;14.276;2022-11-20T10:16:05;6.53;;;5.93;;
12314;SDS011;23886;46.614;14.276;2022-11-20T10:18:44;6.60;;;6.00;;
12314;SDS011;23886;46.614;14.276;2022-11-20T10:21:23;7.37;;;6.27;;
12314;SDS011;23886;46.614;14.276;2022-11-20T10:24:23;7.43;;;6.60;;
12314;SDS011;23886;46.614;14.276;2022-11-20T10:27:00;8.07;;;6.37;;
12314;SDS011;23886;46.614;14.276;2022-11-20T10:29:39;6.87;;;6.23;;
12314;SDS011;23886;46.614;14.276;2022-11-20T10:32:10;7.20;;;6.33;;
12314;SDS011;23886;46.614;14.276;2022-11-20T10:34:43;6.00;;;5.40;;
12314;SDS011;23886;46.614;14.276;2022-11-20T10:37:17;6.57;;;5.97;;
12314;SDS011;23886;46.614;14.276;2022-11-20T10:39:48;6.87;;;6.00;;
12314;SDS011;23886;46.614;14.276;2022-11-20T10:42:24;6.97;;;6.37;;
12314;SDS011;23886;46.614;14.276;2022-11-20T10:44:58;6.83;;;6.23;;
12314;SDS011;23886;46.614;14.276;2022-11-20T10:47:35;6.87;;;5.80;;
12314;SDS011;23886;46.614;14.276;2022-11-20T10:50:05;6.73;;;6.13;;
12314;SDS011;23886;46.614;14.276;2022-11-20T10:52:38;6.07;;;5.57;;
12314;SDS011;23886;46.614;14.276;2022-11-20T10:55:17;7.40;;;6.70;;
12314;SDS011;23886;46.614;14.276;2022-11-20T10:57:57;8.77;;;7.87;;
12314;SDS011;23886;46.614;14.276;2022-11-20T11:00:32;7.07;;;6.37;;
12314;SDS011;23886;46.614;14.276;2022-11-20T11:02:59;7.23;;;6.30;;
12314;SDS011;23886;46.614;14.276;2022-11-20T11:05:37;6.53;;;5.93;;
12314;SDS011;23886;46.614;14.276;2022-11-20T11:08:09;7.17;;;5.90;;
12314;SDS011;23886;46.614;14.276;2022-11-20T11:10:42;6.13;;;5.63;;
12314;SDS011;23886;46.614;14.276;2022-11-20T11:13:20;6.27;;;5.43;;
12314;SDS011;23886;46.614;14.276;2022-11-20T11:15:48;6.60;;;5.90;;
12314;SDS011;23886;46.614;14.276;2022-11-20T11:18:22;6.80;;;6.20;;
12314;SDS011;23886;46.614;14.276;2022-11-20T11:20:52;6.37;;;5.80;;
12314;SDS011;23886;46.614;14.276;2022-11-20T11:23:31;6.57;;;5.97;;
12314;SDS011;23886;46.614;14.276;2022-11-20T11:26:00;7.50;;;6.47;;
12314;SDS011;23886;46.614;14.276;2022-11-20T11:28:28;7.43;;;6.73;;
12314;SDS011;23886;46.614;14.276;2022-11-20T11:30:55;6.80;;;6.10;;
12314;SDS011;23886;46.614;14.276;2022-11-20T11:33:23;6.80;;;5.97;;
12314;SDS011;23886;46.614;14.276;2022-11-20T11:35:53;8.67;;;6.83;;
12314;SDS011;23886;46.614;14.276;2022-11-20T11:38:27;7.27;;;6.57;;
12314;SDS011;23886;46.614;14.276;2022-11-20T11:40:56;6.37;;;5.77;;
12314;SDS011;23886;46.614;14.276;2022-11-20T11:43:24;6.30;;;5.70;;
12314;SDS011;23886;46.614;14.276;2022-11-20T11:46:25;7.27;;;6.10;;
12314;SDS011;23886;46.614;14.276;2022-11-20T11:48:56;6.20;;;5.70;;
12314;SDS011;23886;46.614;14.276;2022-11-20T11:51:27;6.97;;;6.30;;
12314;SDS011;23886;46.614;14.276;2022-11-20T11:53:59;6.40;;;5.73;;
12314;SDS011;23886;46.614;14.276;2022-11-20T11:56:29;6.67;;;6.00;;
12314;SDS011;23886;46.614;14.276;2022-11-20T11:59:00;6.60;;;6.00;;
12314;SDS011;23886;46.614;14.276;2022-11-20T12:01:33;6.60;;;6.00;;
12314;SDS011;23886;46.614;14.276;2022-11-20T12:04:08;6.30;;;5.73;;
12314;SDS011;23886;46.614;14.276;2022-11-20T12:06:45;7.00;;;6.30;;
12314;SDS011;23886;46.614;14.276;2022-11-20T12:09:16;6.53;;;5.93;;
12314;SDS011;23886;46.614;14.276;2022-11-20T12:11:49;5.73;;;5.23;;
12314;SDS011;23886;46.614;14.276;2022-11-20T12:14:21;6.90;;;6.20;;
12314;SDS011;23886;46.614;14.276;2022-11-20T12:16:56;7.47;;;5.90;;
12314;SDS011;23886;46.614;14.276;2022-11-20T12:19:23;5.90;;;5.07;;
12314;SDS011;23886;46.614;14.276;2022-11-20T12:21:55;5.83;;;5.23;;
12314;SDS011;23886;46.614;14.276;2022-11-20T12:24:40;5.23;;;4.73;;
12314;SDS011;23886;46.614;14.276;2022-11-20T12:30:08;5.50;;;5.00;;
12314;SDS011;23886;46.614;14.276;2022-11-20T12:32:42;5.30;;;4.90;;
12314;SDS011;23886;46.614;14.276;2022-11-20T12:35:24;5.60;;;5.10;;
12314;SDS011;23886;46.614;14.276;2022-11-20T12:38:20;5.47;;;4.97;;
12314;SDS011;23886;46.614;14.276;2022-11-20T12:41:08;5.60;;;5.10;;
12314;SDS011;23886;46.614;14.276;2022-11-20T12:44:03;5.87;;;5.37;;
12314;SDS011;23886;46.614;14.276;2022-11-20T12:47:01;7.27;;;5.03;;
12314;SDS011;23886;46.614;14.276;2022-11-20T12:49:41;5.60;;;4.93;;
12314;SDS011;23886;46.614;14.276;2022-11-20T12:52:18;5.20;;;4.73;;
12314;SDS011;23886;46.614;14.276;2022-11-20T12:54:55;5.27;;;4.80;;
12314;SDS011;23886;46.614;14.276;2022-11-20T12:57:36;4.77;;;4.37;;
12314;SDS011;23886;46.614;14.276;2022-11-20T13:00:14;6.67;;;6.07;;
12314;SDS011;23886;46.614;14.276;2022-11-20T13:02:56;5.00;;;4.50;;
12314;SDS011;23886;46.614;14.276;2022-11-20T13:05:57;4.20;;;3.90;;
12314;SDS011;23886;46.614;14.276;2022-11-20T13:08:33;5.20;;;4.47;;
12314;SDS011;23886;46.614;14.276;2022-11-20T13:11:04;4.70;;;4.30;;
12314;SDS011;23886;46.614;14.276;2022-11-20T13:13:39;4.37;;;3.97;;
12314;SDS011;23886;46.614;14.276;2022-11-20T13:16:16;4.17;;;3.87;;
12314;SDS011;23886;46.614;14.276;2022-11-20T13:18:48;4.40;;;4.00;;
12314;SDS011;23886;46.614;14.276;2022-11-20T13:21:16;4.97;;;4.47;;
12314;SDS011;23886;46.614;14.276;2022-11-20T13:23:44;4.73;;;4.33;;
12314;SDS011;23886;46.614;14.276;2022-11-20T13:26:17;4.70;;;4.30;;
12314;SDS011;23886;46.614;14.276;2022-11-20T13:28:46;4.20;;;3.80;;
12314;SDS011;23886;46.614;14.276;2022-11-20T13:31:27;4.37;;;3.97;;
12314;SDS011;23886;46.614;14.276;2022-11-20T13:33:56;4.60;;;4.20;;
12314;SDS011;23886;46.614;14.276;2022-11-20T13:36:26;4.93;;;3.97;;
12314;SDS011;23886;46.614;14.276;2022-11-20T13:38:55;5.90;;;3.77;;
12314;SDS011;23886;46.614;14.276;2022-11-20T13:41:25;3.83;;;3.43;;
12314;SDS011;23886;46.614;14.276;2022-11-20T13:43:59;3.80;;;3.50;;
12314;SDS011;23886;46.614;14.276;2022-11-20T13:46:36;3.80;;;3.50;;
12314;SDS011;23886;46.614;14.276;2022-11-20T13:49:08;3.70;;;3.40;;
12314;SDS011;23886;46.614;14.276;2022-11-20T13:51:39;4.87;;;3.70;;
12314;SDS011;23886;46.614;14.276;2022-11-20T13:54:14;3.70;;;3.40;;
12314;SDS011;23886;46.614;14.276;2022-11-20T13:56:58;4.10;;;3.70;;
12314;SDS011;23886;46.614;14.276;2022-11-20T13:59:38;3.90;;;3.60;;
12314;SDS011;23886;46.614;14.276;2022-11-20T14:02:12;3.83;;;3.53;;
12314;SDS011;23886;46.614;14.276;2022-11-20T14:04:42;8.47;;;6.30;;
12314;SDS011;23886;46.614;14.276;2022-11-20T14:07:12;4.80;;;4.30;;
12314;SDS011;23886;46.614;14.276;2022-11-20T14:09:48;5.23;;;4.30;;
12314;SDS011;23886;46.614;14.276;2022-11-20T14:12:19;8.67;;;7.03;;
12314;SDS011;23886;46.614;14.276;2022-11-20T14:14:49;6.20;;;5.60;;
12314;SDS011;23886;46.614;14.276;2022-11-20T14:17:18;7.57;;;6.73;;
12314;SDS011;23886;46.614;14.276;2022-11-20T14:19:46;6.20;;;5.60;;
12314;SDS011;23886;46.614;14.276;2022-11-20T14:22:16;5.93;;;5.33;;
12314;SDS011;23886;46.614;14.276;2022-11-20T14:24:45;9.53;;;8.57;;
12314;SDS011;23886;46.614;14.276;2022-11-20T14:27:13;7.80;;;7.13;;
12314;SDS011;23886;46.614;14.276;2022-11-20T14:29:43;6.30;;;5.80;;
12314;SDS011;23886;46.614;14.276;2022-11-20T14:32:12;5.47;;;4.97;;
12314;SDS011;23886;46.614;14.276;2022-11-20T14:34:43;4.50;;;4.10;;
12314;SDS011;23886;46.614;14.276;2022-11-20T14:37:12;5.03;;;4.30;;
12314;SDS011;23886;46.614;14.276;2022-11-20T14:39:47;5.33;;;4.93;;
12314;SDS011;23886;46.614;14.276;2022-11-20T14:42:18;4.63;;;4.23;;
12314;SDS011;23886;46.614;14.276;2022-11-20T14:44:47;4.43;;;4.07;;
12314;SDS011;23886;46.614;14.276;2022-11-20T14:47:17;4.50;;;4.10;;
12314;SDS011;23886;46.614;14.276;2022-11-20T14:49:47;4.47;;;4.07;;
12314;SDS011;23886;46.614;14.276;2022-11-20T14:52:16;4.40;;;4.00;;
12314;SDS011;23886;46.614;14.276;2022-11-20T14:54:45;4.93;;;4.43;;
12314;SDS011;23886;46.614;14.276;2022-11-20T14:57:21;4.33;;;3.93;;
12314;SDS011;23886;46.614;14.276;2022-11-20T14:59:51;4.37;;;4.00;;